createdAt,value
2022-12-25T00:11:25.120Z,71.38
2022-12-25T00:40:20.493Z,71.08
2022-12-25T01:09:21.112Z,70.86
2022-12-25T01:38:22.708Z,70.71
2022-12-25T02:07:22.657Z,70.62
2022-12-25T02:36:14.546Z,70.48
2022-12-25T03:05:15.524Z,70.35
2022-12-25T03:34:13.547Z,70.22
2022-12-25T04:03:15.508Z,70.2
2022-12-25T04:32:08.630Z,70.06
2022-12-25T05:01:08.441Z,70
2022-12-25T05:30:10.300Z,70.84
2022-12-25T05:59:10.675Z,71.09
2022-12-25T06:28:10.148Z,70.82
2022-12-25T06:57:03.287Z,70.71
2022-12-25T07:25:56.428Z,70.4
2022-12-25T07:54:54.783Z,70.2
2022-12-25T08:23:50.793Z,70.02
2022-12-25T08:52:50.590Z,69.96
2022-12-25T09:21:42.739Z,69.95
2022-12-25T09:50:31.077Z,70.13
2022-12-25T10:19:23.084Z,69.88
2022-12-25T10:48:16.706Z,69.78
2022-12-25T11:17:05.687Z,69.63
2022-12-25T11:45:56.226Z,69.53
2022-12-25T12:14:35.509Z,69.86
2022-12-25T12:43:31.017Z,70.06
2022-12-25T13:12:07.866Z,71.55
2022-12-25T13:40:56.321Z,71.26
2022-12-25T14:09:30.078Z,70.34
2022-12-25T14:38:11.621Z,69.95
2022-12-25T15:07:03.914Z,70.38
2022-12-25T15:35:42.058Z,70.13
2022-12-25T16:04:23.920Z,69.82
2022-12-25T16:33:08.455Z,69.66
2022-12-25T17:30:25.867Z,69.5
2022-12-25T17:59:11.231Z,69.34
2022-12-25T18:27:42.948Z,69.2
2022-12-25T19:25:01.499Z,70.72
2022-12-25T19:53:43.674Z,70.24
2022-12-25T20:22:28.246Z,69.95
2022-12-25T20:51:04.860Z,69.76
2022-12-25T21:19:47.283Z,69.91
2022-12-25T22:17:10.686Z,69.52
2022-12-25T22:45:47.722Z,69.66
2022-12-25T23:14:28.463Z,69.46
2022-12-25T23:43:16.877Z,69.33
